createdAt,value
2019-05-23T00:00:03.399Z,0.00
2019-05-23T00:01:03.380Z,0.00
2019-05-23T00:02:03.363Z,0.00
2019-05-23T00:03:03.370Z,0.00
2019-05-23T00:04:03.338Z,0.00
2019-05-23T00:05:03.322Z,0.00
2019-05-23T00:06:03.321Z,0.00
2019-05-23T00:07:03.330Z,0.00
2019-05-23T00:08:03.341Z,0.00
2019-05-23T00:09:03.287Z,0.00
2019-05-23T00:10:03.295Z,0.00
2019-05-23T00:11:03.261Z,0.00
2019-05-23T00:12:03.262Z,0.00
2019-05-23T00:13:03.249Z,0.00
2019-05-23T00:14:03.244Z,0.00
2019-05-23T00:15:03.240Z,0.00
2019-05-23T00:16:03.207Z,0.00
2019-05-23T00:17:03.190Z,0.00
2019-05-23T00:18:03.210Z,0.00
2019-05-23T00:19:03.181Z,0.00
2019-05-23T00:20:03.200Z,0.00
2019-05-23T00:21:03.152Z,0.00
2019-05-23T00:22:03.141Z,0.00
2019-05-23T00:23:03.127Z,0.00
2019-05-23T00:24:03.144Z,0.00
2019-05-23T00:25:03.137Z,0.00
2019-05-23T00:26:03.134Z,0.00
2019-05-23T00:27:03.123Z,0.00
2019-05-23T00:28:03.082Z,0.00
2019-05-23T00:29:10.170Z,0.00
2019-05-23T00:30:04.079Z,0.00
2019-05-23T00:31:03.050Z,0.00
2019-05-23T00:32:03.067Z,0.00
2019-05-23T00:33:03.021Z,0.00
2019-05-23T00:34:03.013Z,0.00
2019-05-23T00:35:03.027Z,0.00
2019-05-23T00:36:03.012Z,0.00
2019-05-23T00:37:02.985Z,0.00
2019-05-23T00:38:02.975Z,0.00
2019-05-23T00:39:02.970Z,0.00
2019-05-23T00:40:02.946Z,0.00
2019-05-23T00:41:02.942Z,0.00
2019-05-23T00:42:02.932Z,0.00
2019-05-23T00:43:02.925Z,0.00
2019-05-23T00:44:02.926Z,0.00
2019-05-23T00:45:02.893Z,0.00
2019-05-23T00:46:02.907Z,0.00
2019-05-23T00:47:02.895Z,0.00
2019-05-23T00:48:02.865Z,0.00
2019-05-23T00:49:02.874Z,0.00
2019-05-23T00:50:02.841Z,0.00
2019-05-23T00:51:05.148Z,0.00
2019-05-23T00:52:02.823Z,0.00
2019-05-23T00:53:02.817Z,0.00
2019-05-23T00:54:02.837Z,0.00
2019-05-23T00:55:02.791Z,0.00
2019-05-23T00:56:02.805Z,0.00
2019-05-23T00:57:02.765Z,0.00
2019-05-23T00:58:02.756Z,0.00
2019-05-23T00:59:02.760Z,0.00
2019-05-23T01:00:02.744Z,0.00
2019-05-23T01:01:02.747Z,0.00
2019-05-23T01:02:02.718Z,0.00
2019-05-23T01:03:02.702Z,0.00
2019-05-23T01:04:02.695Z,0.00
2019-05-23T01:05:02.695Z,0.00
2019-05-23T01:06:02.690Z,0.00
2019-05-23T01:07:02.727Z,0.00
2019-05-23T01:08:02.653Z,0.00
2019-05-23T01:09:02.639Z,0.00
2019-05-23T01:10:02.658Z,0.00
2019-05-23T01:11:02.636Z,0.00
2019-05-23T01:12:02.616Z,0.00
2019-05-23T01:13:02.607Z,0.00
2019-05-23T01:14:02.588Z,0.00
2019-05-23T01:15:02.593Z,0.00
2019-05-23T01:16:02.578Z,0.00
2019-05-23T01:17:02.558Z,0.00
2019-05-23T01:18:02.546Z,0.00
2019-05-23T01:19:02.534Z,0.00
2019-05-23T01:20:02.545Z,0.00
2019-05-23T01:21:02.510Z,0.00
2019-05-23T01:22:02.508Z,0.00
2019-05-23T01:23:02.500Z,0.00
2019-05-23T01:24:02.509Z,0.00
2019-05-23T01:25:02.488Z,0.00
2019-05-23T01:26:02.489Z,0.00
2019-05-23T01:27:02.446Z,0.00
2019-05-23T01:28:02.445Z,0.00
2019-05-23T01:29:02.432Z,0.00
2019-05-23T01:30:02.430Z,0.00
2019-05-23T01:31:02.407Z,0.00
2019-05-23T01:32:02.429Z,0.00
2019-05-23T01:33:02.478Z,0.00
2019-05-23T01:34:02.375Z,0.00
2019-05-23T01:35:02.362Z,0.00
2019-05-23T01:36:02.400Z,0.00
2019-05-23T01:37:02.351Z,0.00
2019-05-23T01:38:04.255Z,0.00
2019-05-23T01:39:02.334Z,0.00
2019-05-23T01:40:02.318Z,0.00
2019-05-23T01:41:02.322Z,0.00
2019-05-23T01:42:02.286Z,0.00
2019-05-23T01:43:02.274Z,0.00
2019-05-23T01:44:02.263Z,0.00
2019-05-23T01:45:02.329Z,0.00
2019-05-23T01:46:02.256Z,0.00
2019-05-23T01:47:02.224Z,0.00
2019-05-23T01:48:02.244Z,0.00
2019-05-23T01:49:02.228Z,0.00
2019-05-23T01:50:02.214Z,0.00
2019-05-23T01:51:02.194Z,0.00
2019-05-23T01:52:02.193Z,0.00
2019-05-23T01:53:02.218Z,0.00
2019-05-23T01:54:02.208Z,0.00
2019-05-23T01:55:02.146Z,0.00
2019-05-23T01:56:02.141Z,0.00
2019-05-23T01:57:02.139Z,0.00
2019-05-23T01:58:02.201Z,0.00
2019-05-23T01:59:02.099Z,0.00
2019-05-23T02:00:10.384Z,0.00
2019-05-23T02:01:03.075Z,0.00
2019-05-23T02:02:02.071Z,0.00
2019-05-23T02:03:02.067Z,0.00
2019-05-23T02:04:02.077Z,0.00
2019-05-23T02:05:02.114Z,0.00
2019-05-23T02:06:02.032Z,0.00
2019-05-23T02:07:02.022Z,0.00
2019-05-23T02:08:02.021Z,0.00
2019-05-23T02:09:02.009Z,0.00
2019-05-23T02:10:02.050Z,0.00
2019-05-23T02:11:01.967Z,0.00
2019-05-23T02:12:01.965Z,0.00
2019-05-23T02:13:01.969Z,0.00
2019-05-23T02:14:01.962Z,0.00
2019-05-23T02:15:01.940Z,0.00
2019-05-23T02:16:01.945Z,0.00
2019-05-23T02:17:01.905Z,0.00
2019-05-23T02:18:02.077Z,0.00
2019-05-23T02:19:01.891Z,0.00
2019-05-23T02:20:01.881Z,0.00
2019-05-23T02:21:09.199Z,0.00
2019-05-23T02:22:01.862Z,0.00
2019-05-23T02:23:01.847Z,0.00
2019-05-23T02:24:01.829Z,0.00
2019-05-23T02:25:01.821Z,0.00
2019-05-23T02:26:01.838Z,0.00
2019-05-23T02:27:01.802Z,0.00
2019-05-23T02:28:01.793Z,0.00
2019-05-23T02:29:01.779Z,0.00
2019-05-23T02:30:01.805Z,0.00
2019-05-23T02:31:01.757Z,0.00
2019-05-23T02:32:01.756Z,0.00
2019-05-23T02:33:01.729Z,0.00
2019-05-23T02:34:01.723Z,0.00
2019-05-23T02:35:10.020Z,0.00
2019-05-23T02:36:01.739Z,0.00
2019-05-23T02:37:01.697Z,0.00
2019-05-23T02:38:01.696Z,0.00
2019-05-23T02:39:01.669Z,0.00
2019-05-23T02:40:01.687Z,0.00
2019-05-23T02:41:01.660Z,0.00
2019-05-23T02:42:01.651Z,0.00
2019-05-23T02:43:01.624Z,0.00
2019-05-23T02:44:01.641Z,0.00
2019-05-23T02:45:01.613Z,0.00
2019-05-23T02:46:01.612Z,0.00
2019-05-23T02:47:01.585Z,0.00
2019-05-23T02:48:01.573Z,0.00
2019-05-23T02:49:01.569Z,0.00
2019-05-23T02:50:01.572Z,0.00
2019-05-23T02:51:01.582Z,0.00
2019-05-23T02:52:01.529Z,0.00
2019-05-23T02:53:01.521Z,0.00
2019-05-23T02:54:01.513Z,0.00
2019-05-23T02:55:01.498Z,0.00
2019-05-23T02:56:01.515Z,5.62
2019-05-23T02:57:01.476Z,5.62
2019-05-23T02:58:01.465Z,5.62
2019-05-23T02:59:01.467Z,5.62
2019-05-23T03:00:01.458Z,5.62
2019-05-23T03:01:01.446Z,5.62
2019-05-23T03:02:01.453Z,5.62
2019-05-23T03:03:01.409Z,5.62
2019-05-23T03:04:01.408Z,5.62
2019-05-23T03:05:01.403Z,5.62
2019-05-23T03:06:01.380Z,5.62
2019-05-23T03:07:01.388Z,11.25
2019-05-23T03:08:01.377Z,11.25
2019-05-23T03:09:01.344Z,11.25
2019-05-23T03:10:01.352Z,11.25
2019-05-23T03:11:01.322Z,11.25
2019-05-23T03:12:01.348Z,11.25
2019-05-23T03:13:01.325Z,11.25
2019-05-23T03:14:01.292Z,11.25
2019-05-23T03:15:01.285Z,16.88
2019-05-23T03:16:01.267Z,16.88
2019-05-23T03:17:01.277Z,16.88
2019-05-23T03:18:01.252Z,16.88
2019-05-23T03:19:01.250Z,16.88
2019-05-23T03:20:01.233Z,16.88
2019-05-23T03:21:01.214Z,16.88
2019-05-23T03:22:01.244Z,22.50
2019-05-23T03:23:01.200Z,22.50
2019-05-23T03:24:01.218Z,22.50
2019-05-23T03:25:01.177Z,22.50
2019-05-23T03:26:01.176Z,22.50
2019-05-23T03:27:01.153Z,22.50
2019-05-23T03:28:01.160Z,22.50
2019-05-23T03:29:01.131Z,22.50
2019-05-23T03:30:01.133Z,28.12
2019-05-23T03:31:25.267Z,28.12
2019-05-23T03:32:02.137Z,28.12
2019-05-23T03:33:01.241Z,28.12
2019-05-23T03:34:01.082Z,28.12
2019-05-23T03:35:01.066Z,28.12
2019-05-23T03:36:01.066Z,33.75
2019-05-23T03:37:01.052Z,33.75
2019-05-23T03:38:01.060Z,33.75
2019-05-23T03:39:01.023Z,33.75
2019-05-23T03:40:01.008Z,33.75
2019-05-23T03:41:01.011Z,39.38
2019-05-23T03:42:01.003Z,39.38
2019-05-23T03:43:01.013Z,39.38
2019-05-23T03:44:00.977Z,39.38
2019-05-23T03:45:00.964Z,39.38
2019-05-23T03:46:00.946Z,39.38
2019-05-23T03:47:00.946Z,39.38
2019-05-23T03:48:00.956Z,39.38
2019-05-23T03:49:00.917Z,39.38
2019-05-23T03:50:00.907Z,39.38
2019-05-23T03:51:00.898Z,45.00
2019-05-23T03:52:00.888Z,45.00
2019-05-23T03:53:00.892Z,45.00
2019-05-23T03:54:00.869Z,45.00
2019-05-23T03:55:00.851Z,45.00
2019-05-23T03:56:00.838Z,45.00
2019-05-23T03:57:00.833Z,45.00
2019-05-23T03:58:00.854Z,45.00
2019-05-23T03:59:00.817Z,45.00
2019-05-23T04:00:00.801Z,45.00
2019-05-23T04:01:00.793Z,45.00
2019-05-23T04:02:00.780Z,45.00
2019-05-23T04:03:00.825Z,45.00
2019-05-23T04:04:00.782Z,50.62
2019-05-23T04:05:00.741Z,50.62
2019-05-23T04:06:00.747Z,50.62
2019-05-23T04:07:00.721Z,50.62
2019-05-23T04:08:00.707Z,50.62
2019-05-23T04:09:00.791Z,50.62
2019-05-23T04:10:00.690Z,50.62
2019-05-23T04:11:00.700Z,50.62
2019-05-23T04:12:00.664Z,56.25
2019-05-23T04:13:00.741Z,56.25
2019-05-23T04:14:00.674Z,56.25
2019-05-23T04:15:00.641Z,56.25
2019-05-23T04:16:00.650Z,56.25
2019-05-23T04:17:00.619Z,56.25
2019-05-23T04:18:00.612Z,56.25
2019-05-23T04:19:00.615Z,61.88
2019-05-23T04:20:00.581Z,61.88
2019-05-23T04:21:00.604Z,61.88
2019-05-23T04:22:00.599Z,61.88
2019-05-23T04:23:00.562Z,61.88
2019-05-23T04:24:00.557Z,67.50
2019-05-23T04:25:02.069Z,67.50
2019-05-23T04:26:00.522Z,67.50
2019-05-23T04:27:00.521Z,67.50
2019-05-23T04:28:00.495Z,67.50
2019-05-23T04:29:00.531Z,73.12
2019-05-23T04:30:00.481Z,73.12
2019-05-23T04:31:00.483Z,73.12
2019-05-23T04:32:07.942Z,78.75
2019-05-23T04:33:01.449Z,90.00
2019-05-23T04:34:00.457Z,95.62
2019-05-23T04:35:00.435Z,95.62
2019-05-23T04:36:00.415Z,95.62
2019-05-23T04:37:00.400Z,95.62
2019-05-23T04:38:00.391Z,95.62
2019-05-23T04:39:00.402Z,101.25
2019-05-23T04:40:00.371Z,101.25
2019-05-23T04:41:00.364Z,106.88
2019-05-23T04:42:00.343Z,112.50
2019-05-23T04:43:00.335Z,112.50
2019-05-23T04:44:00.341Z,118.12
2019-05-23T04:45:00.322Z,118.12
2019-05-23T04:46:00.310Z,123.75
2019-05-23T04:47:00.300Z,118.12
2019-05-23T04:48:00.286Z,118.12
2019-05-23T04:49:00.290Z,118.12
2019-05-23T04:50:00.277Z,112.50
2019-05-23T04:51:00.687Z,118.12
2019-05-23T04:52:00.255Z,118.12
2019-05-23T04:53:00.228Z,118.12
2019-05-23T04:54:00.352Z,118.12
2019-05-23T04:55:00.217Z,123.75
2019-05-23T04:56:00.207Z,123.75
2019-05-23T04:57:00.186Z,123.75
2019-05-23T04:58:03.930Z,123.75
2019-05-23T04:59:00.211Z,129.38
2019-05-23T05:00:00.148Z,129.38
2019-05-23T05:01:00.194Z,129.38
2019-05-23T05:02:00.141Z,129.38
2019-05-23T05:03:00.120Z,135.00
2019-05-23T05:04:00.215Z,151.88
2019-05-23T05:05:00.121Z,185.62
2019-05-23T05:06:00.154Z,225.00
2019-05-23T05:07:00.083Z,241.88
2019-05-23T05:08:00.069Z,213.75
2019-05-23T05:09:00.099Z,180.00
2019-05-23T05:10:00.051Z,151.88
2019-05-23T05:11:00.046Z,140.62
2019-05-23T05:12:00.024Z,140.62
2019-05-23T05:13:00.020Z,140.62
2019-05-23T05:14:00.021Z,135.00
2019-05-23T05:15:00.019Z,135.00
2019-05-23T05:15:59.989Z,135.00
2019-05-23T05:16:59.981Z,129.38
2019-05-23T05:17:59.960Z,135.00
2019-05-23T05:18:59.959Z,129.38
2019-05-23T05:19:59.957Z,129.38
2019-05-23T05:20:59.933Z,129.38
2019-05-23T05:21:59.916Z,135.00
2019-05-23T05:22:59.903Z,135.00
2019-05-23T05:23:59.899Z,135.00
2019-05-23T05:24:59.922Z,129.38
2019-05-23T05:25:59.873Z,135.00
2019-05-23T05:26:59.857Z,135.00
2019-05-23T05:27:59.851Z,140.62
2019-05-23T05:28:59.871Z,140.62
2019-05-23T05:29:59.843Z,151.88
2019-05-23T05:30:59.817Z,135.00
2019-05-23T05:32:03.436Z,135.00
2019-05-23T05:32:59.798Z,135.00
2019-05-23T05:33:59.794Z,135.00
2019-05-23T05:34:59.791Z,140.62
2019-05-23T05:35:59.773Z,140.62
2019-05-23T05:36:59.756Z,135.00
2019-05-23T05:37:59.750Z,135.00
2019-05-23T05:38:59.736Z,135.00
2019-05-23T05:39:59.750Z,135.00
2019-05-23T05:40:59.718Z,140.62
2019-05-23T05:41:59.704Z,140.62
2019-05-23T05:42:59.694Z,140.62
2019-05-23T05:43:59.683Z,140.62
2019-05-23T05:44:59.674Z,140.62
2019-05-23T05:45:59.669Z,140.62
2019-05-23T05:46:59.655Z,140.62
2019-05-23T05:47:59.642Z,140.62
2019-05-23T05:48:59.622Z,140.62
2019-05-23T05:49:59.630Z,140.62
2019-05-23T05:50:59.626Z,146.25
2019-05-23T05:51:59.615Z,146.25
2019-05-23T05:52:59.589Z,146.25
2019-05-23T05:53:59.577Z,146.25
2019-05-23T05:55:01.059Z,146.25
2019-05-23T05:55:59.566Z,146.25
2019-05-23T05:56:59.548Z,146.25
2019-05-23T05:57:59.530Z,151.88
2019-05-23T05:58:59.524Z,163.12
2019-05-23T05:59:59.501Z,180.00
2019-05-23T06:00:59.584Z,157.50
2019-05-23T06:01:59.487Z,151.88
2019-05-23T06:03:04.091Z,157.50
2019-05-23T06:04:00.458Z,151.88
2019-05-23T06:04:59.459Z,163.12
2019-05-23T06:05:59.480Z,168.75
2019-05-23T06:06:59.431Z,151.88
2019-05-23T06:07:59.422Z,168.75
2019-05-23T06:08:59.409Z,157.50
2019-05-23T06:09:59.408Z,151.88
2019-05-23T06:10:59.443Z,157.50
2019-05-23T06:11:59.378Z,168.75
2019-05-23T06:12:59.371Z,168.75
2019-05-23T06:13:59.361Z,163.12
2019-05-23T06:14:59.348Z,168.75
2019-05-23T06:15:59.354Z,163.12
2019-05-23T06:16:59.409Z,174.38
2019-05-23T06:17:59.323Z,180.00
2019-05-23T06:18:59.300Z,168.75
2019-05-23T06:19:59.302Z,168.75
2019-05-23T06:20:59.301Z,168.75
2019-05-23T06:21:59.274Z,163.12
2019-05-23T06:22:59.257Z,163.12
2019-05-23T06:23:59.252Z,168.75
2019-05-23T06:24:59.258Z,174.38
2019-05-23T06:25:59.266Z,180.00
2019-05-23T06:26:59.213Z,174.38
2019-05-23T06:27:59.199Z,174.38
2019-05-23T06:28:59.193Z,174.38
2019-05-23T06:29:59.181Z,174.38
2019-05-23T06:30:59.189Z,180.00
2019-05-23T06:31:59.159Z,185.62
2019-05-23T06:32:59.161Z,180.00
2019-05-23T06:33:59.142Z,174.38
2019-05-23T06:34:59.136Z,168.75
2019-05-23T06:35:59.146Z,174.38
2019-05-23T06:36:59.115Z,174.38
2019-05-23T06:37:59.113Z,180.00
2019-05-23T06:38:59.092Z,180.00
2019-05-23T06:39:59.090Z,180.00
2019-05-23T06:40:59.085Z,180.00
2019-05-23T06:41:59.062Z,180.00
2019-05-23T06:42:59.044Z,180.00
2019-05-23T06:43:59.038Z,180.00
2019-05-23T06:44:59.032Z,180.00
2019-05-23T06:45:59.043Z,180.00
2019-05-23T06:46:59.040Z,185.62
2019-05-23T06:47:58.995Z,185.62
2019-05-23T06:48:59.033Z,185.62
2019-05-23T06:49:58.968Z,185.62
2019-05-23T06:50:58.982Z,185.62
2019-05-23T06:51:58.946Z,185.62
2019-05-23T06:52:58.946Z,196.88
2019-05-23T06:53:58.924Z,196.88
2019-05-23T06:54:59.813Z,202.50
2019-05-23T06:55:58.942Z,208.12
2019-05-23T06:56:58.918Z,230.62
2019-05-23T06:57:58.882Z,225.00
2019-05-23T06:58:59.596Z,236.25
2019-05-23T06:59:58.865Z,208.12
2019-05-23T07:00:58.856Z,191.25
2019-05-23T07:01:58.864Z,185.62
2019-05-23T07:02:58.848Z,180.00
2019-05-23T07:03:58.832Z,180.00
2019-05-23T07:04:58.823Z,185.62
2019-05-23T07:05:58.816Z,191.25
2019-05-23T07:06:58.807Z,191.25
2019-05-23T07:07:58.784Z,196.88
2019-05-23T07:08:58.766Z,202.50
2019-05-23T07:09:58.758Z,202.50
2019-05-23T07:10:58.756Z,202.50
2019-05-23T07:11:58.771Z,208.12
2019-05-23T07:12:58.740Z,202.50
2019-05-23T07:13:58.744Z,202.50
2019-05-23T07:14:58.715Z,208.12
2019-05-23T07:15:58.693Z,208.12
2019-05-23T07:16:58.727Z,208.12
2019-05-23T07:17:58.683Z,208.12
2019-05-23T07:18:58.664Z,213.75
2019-05-23T07:19:58.676Z,213.75
2019-05-23T07:20:58.641Z,219.38
2019-05-23T07:21:58.713Z,219.38
2019-05-23T07:22:58.665Z,219.38
2019-05-23T07:23:58.633Z,225.00
2019-05-23T07:24:59.039Z,236.25
2019-05-23T07:25:58.587Z,247.50
2019-05-23T07:26:58.585Z,241.88
2019-05-23T07:27:58.591Z,258.75
2019-05-23T07:28:58.560Z,258.75
2019-05-23T07:29:58.547Z,247.50
2019-05-23T07:30:58.546Z,303.75
2019-05-23T07:31:58.536Z,365.62
2019-05-23T07:32:58.572Z,393.75
2019-05-23T07:34:02.334Z,298.12
2019-05-23T07:34:58.493Z,292.50
2019-05-23T07:35:58.495Z,298.12
2019-05-23T07:36:58.489Z,275.62
2019-05-23T07:37:58.486Z,270.00
2019-05-23T07:38:58.457Z,337.50
2019-05-23T07:39:58.445Z,399.38
2019-05-23T07:40:58.422Z,427.50
2019-05-23T07:41:58.424Z,376.88
2019-05-23T07:42:58.435Z,376.88
2019-05-23T07:43:58.387Z,388.12
2019-05-23T07:44:58.388Z,371.25
2019-05-23T07:45:58.421Z,360.00
2019-05-23T07:46:58.362Z,354.38
2019-05-23T07:47:58.565Z,360.00
2019-05-23T07:48:58.338Z,376.88
2019-05-23T07:49:58.340Z,388.12
2019-05-23T07:50:58.326Z,343.12
2019-05-23T07:51:58.302Z,303.75
2019-05-23T07:52:58.327Z,315.00
2019-05-23T07:53:58.286Z,326.25
2019-05-23T07:54:58.271Z,343.12
2019-05-23T07:55:58.273Z,281.25
2019-05-23T07:56:58.255Z,264.38
2019-05-23T07:57:58.262Z,258.75
2019-05-23T07:58:58.236Z,247.50
2019-05-23T07:59:58.219Z,247.50
2019-05-23T08:00:58.222Z,247.50
2019-05-23T08:01:58.714Z,286.88
2019-05-23T08:02:58.560Z,298.12
2019-05-23T08:03:58.186Z,315.00
2019-05-23T08:04:58.175Z,281.25
2019-05-23T08:05:58.167Z,247.50
2019-05-23T08:06:58.161Z,281.25
2019-05-23T08:07:58.199Z,292.50
2019-05-23T08:08:58.136Z,303.75
2019-05-23T08:09:58.125Z,303.75
2019-05-23T08:10:58.107Z,315.00
2019-05-23T08:11:58.089Z,365.62
2019-05-23T08:12:58.095Z,421.88
2019-05-23T08:13:58.066Z,427.50
2019-05-23T08:14:58.060Z,438.75
2019-05-23T08:15:58.091Z,427.50
2019-05-23T08:16:58.051Z,331.88
2019-05-23T08:17:58.078Z,331.88
2019-05-23T08:18:58.018Z,348.75
2019-05-23T08:19:57.999Z,337.50
2019-05-23T08:20:57.991Z,286.88
2019-05-23T08:21:57.995Z,309.38
2019-05-23T08:22:57.998Z,292.50
2019-05-23T08:23:57.961Z,298.12
2019-05-23T08:24:57.947Z,286.88
2019-05-23T08:25:57.957Z,253.12
2019-05-23T08:26:57.930Z,281.25
2019-05-23T08:27:57.958Z,281.25
2019-05-23T08:29:24.136Z,281.25
2019-05-23T08:30:02.108Z,281.25
2019-05-23T08:30:57.887Z,281.25
2019-05-23T08:31:57.897Z,286.88
2019-05-23T08:32:57.886Z,286.88
2019-05-23T08:33:57.862Z,281.25
2019-05-23T08:34:57.839Z,286.88
2019-05-23T08:35:57.833Z,286.88
2019-05-23T08:36:57.840Z,286.88
2019-05-23T08:37:57.827Z,281.25
2019-05-23T08:38:57.828Z,281.25
2019-05-23T08:39:57.801Z,286.88
2019-05-23T08:40:57.784Z,281.25
2019-05-23T08:41:57.797Z,281.25
2019-05-23T08:42:57.774Z,292.50
2019-05-23T08:43:57.740Z,286.88
2019-05-23T08:44:57.737Z,281.25
2019-05-23T08:45:57.734Z,286.88
2019-05-23T08:46:57.710Z,286.88
2019-05-23T08:47:57.719Z,292.50
2019-05-23T08:48:57.696Z,298.12
2019-05-23T08:49:57.679Z,309.38
2019-05-23T08:50:57.679Z,315.00
2019-05-23T08:51:57.669Z,320.62
2019-05-23T08:52:57.686Z,320.62
2019-05-23T08:53:57.636Z,315.00
2019-05-23T08:54:57.630Z,315.00
2019-05-23T08:55:57.618Z,315.00
2019-05-23T08:56:57.613Z,303.75
2019-05-23T08:57:57.631Z,315.00
2019-05-23T08:58:57.585Z,320.62
2019-05-23T08:59:57.580Z,320.62
2019-05-23T09:00:57.567Z,326.25
2019-05-23T09:01:57.561Z,320.62
2019-05-23T09:02:58.665Z,326.25
2019-05-23T09:03:57.541Z,326.25
2019-05-23T09:05:04.500Z,320.62
2019-05-23T09:05:58.514Z,320.62
2019-05-23T09:06:57.492Z,320.62
2019-05-23T09:07:57.531Z,320.62
2019-05-23T09:08:57.497Z,326.25
2019-05-23T09:09:57.465Z,326.25
2019-05-23T09:10:57.452Z,326.25
2019-05-23T09:11:57.462Z,320.62
2019-05-23T09:12:57.446Z,326.25
2019-05-23T09:13:57.445Z,326.25
2019-05-23T09:14:57.410Z,326.25
2019-05-23T09:15:57.401Z,326.25
2019-05-23T09:16:57.390Z,326.25
2019-05-23T09:17:57.386Z,331.88
2019-05-23T09:18:57.381Z,331.88
2019-05-23T09:19:57.375Z,337.50
2019-05-23T09:20:57.356Z,337.50
2019-05-23T09:21:58.188Z,337.50
2019-05-23T09:22:57.321Z,343.12
2019-05-23T09:23:57.342Z,343.12
2019-05-23T09:24:57.302Z,343.12
2019-05-23T09:25:57.289Z,343.12
2019-05-23T09:26:57.282Z,337.50
2019-05-23T09:27:57.272Z,343.12
2019-05-23T09:28:57.277Z,343.12
2019-05-23T09:29:57.247Z,337.50
2019-05-23T09:30:57.265Z,337.50
2019-05-23T09:31:57.260Z,337.50
2019-05-23T09:32:57.215Z,337.50
2019-05-23T09:33:57.236Z,337.50
2019-05-23T09:34:57.206Z,343.12
2019-05-23T09:35:57.191Z,343.12
2019-05-23T09:37:00.159Z,343.12
2019-05-23T09:37:57.175Z,348.75
2019-05-23T09:38:57.269Z,354.38
2019-05-23T09:39:57.159Z,360.00
2019-05-23T09:40:57.126Z,360.00
2019-05-23T09:41:57.138Z,354.38
2019-05-23T09:42:57.112Z,360.00
2019-05-23T09:43:57.126Z,365.62
2019-05-23T09:44:57.101Z,371.25
2019-05-23T09:45:57.096Z,376.88
2019-05-23T09:46:57.069Z,388.12
2019-05-23T09:47:57.059Z,393.75
2019-05-23T09:48:57.067Z,399.38
2019-05-23T09:49:57.033Z,399.38
2019-05-23T09:50:57.057Z,399.38
2019-05-23T09:52:00.958Z,399.38
2019-05-23T09:52:57.002Z,399.38
2019-05-23T09:53:57.009Z,405.00
2019-05-23T09:54:57.013Z,405.00
2019-05-23T09:55:56.971Z,410.62
2019-05-23T09:56:56.963Z,421.88
2019-05-23T09:57:57.024Z,421.88
2019-05-23T09:58:56.939Z,427.50
2019-05-23T09:59:57.209Z,433.12
2019-05-23T10:00:56.932Z,433.12
2019-05-23T10:01:56.913Z,438.75
2019-05-23T10:02:56.925Z,444.38
2019-05-23T10:03:56.899Z,450.00
2019-05-23T10:04:56.904Z,461.25
2019-05-23T10:05:56.878Z,472.50
2019-05-23T10:06:56.872Z,472.50
2019-05-23T10:07:56.890Z,478.12
2019-05-23T10:08:56.833Z,483.75
2019-05-23T10:09:56.853Z,483.75
2019-05-23T10:10:56.831Z,495.00
2019-05-23T10:11:56.809Z,500.62
2019-05-23T10:12:56.820Z,511.88
2019-05-23T10:13:56.782Z,517.50
2019-05-23T10:14:56.775Z,528.75
2019-05-23T10:15:56.784Z,534.38
2019-05-23T10:16:56.750Z,540.00
2019-05-23T10:18:00.602Z,545.62
2019-05-23T10:18:56.733Z,551.25
2019-05-23T10:19:56.720Z,556.88
2019-05-23T10:20:56.717Z,568.12
2019-05-23T10:21:56.692Z,573.75
2019-05-23T10:22:56.721Z,585.00
2019-05-23T10:23:56.680Z,590.62
2019-05-23T10:24:56.666Z,596.25
2019-05-23T10:25:56.648Z,607.50
2019-05-23T10:26:56.661Z,613.12
2019-05-23T10:27:56.660Z,613.12
2019-05-23T10:28:56.627Z,618.75
2019-05-23T10:29:56.610Z,635.62
2019-05-23T10:30:56.608Z,635.62
2019-05-23T10:31:56.584Z,641.25
2019-05-23T10:32:56.603Z,658.12
2019-05-23T10:33:56.608Z,658.12
2019-05-23T10:34:56.554Z,663.75
2019-05-23T10:36:00.986Z,669.38
2019-05-23T10:36:56.549Z,686.25
2019-05-23T10:37:56.551Z,680.62
2019-05-23T10:38:56.515Z,686.25
2019-05-23T10:39:56.511Z,680.62
2019-05-23T10:40:56.493Z,663.75
2019-05-23T10:41:56.495Z,680.62
2019-05-23T10:42:56.475Z,686.25
2019-05-23T10:43:56.474Z,691.88
2019-05-23T10:44:56.449Z,697.50
2019-05-23T10:45:56.439Z,703.12
2019-05-23T10:46:56.460Z,703.12
2019-05-23T10:47:56.431Z,714.38
2019-05-23T10:48:56.404Z,714.38
2019-05-23T10:49:56.392Z,708.75
2019-05-23T10:50:56.408Z,720.00
2019-05-23T10:51:56.399Z,731.25
2019-05-23T10:52:56.357Z,731.25
2019-05-23T10:53:56.350Z,736.88
2019-05-23T10:54:56.485Z,742.50
2019-05-23T10:55:56.333Z,748.12
2019-05-23T10:56:56.365Z,748.12
2019-05-23T10:57:56.336Z,753.75
2019-05-23T10:58:56.305Z,753.75
2019-05-23T10:59:56.288Z,759.38
2019-05-23T11:00:56.280Z,759.38
2019-05-23T11:01:56.275Z,776.25
2019-05-23T11:02:56.281Z,787.50
2019-05-23T11:03:56.242Z,798.75
2019-05-23T11:04:56.252Z,810.00
2019-05-23T11:05:56.228Z,838.12
2019-05-23T11:06:56.221Z,894.38
2019-05-23T11:07:56.231Z,1490.62
2019-05-23T11:08:56.201Z,2604.38
2019-05-23T11:09:56.177Z,3020.62
2019-05-23T11:10:56.192Z,3133.12
2019-05-23T11:11:56.161Z,3161.25
2019-05-23T11:12:56.177Z,3256.88
2019-05-23T11:13:56.142Z,961.88
2019-05-23T11:14:56.131Z,3228.75
2019-05-23T11:15:56.154Z,3138.75
2019-05-23T11:16:56.104Z,3256.88
2019-05-23T11:17:56.161Z,3240.00
2019-05-23T11:18:56.092Z,3195.00
2019-05-23T11:19:56.082Z,3161.25
2019-05-23T11:20:56.078Z,3161.25
2019-05-23T11:21:56.059Z,3155.62
2019-05-23T11:22:56.066Z,3223.12
2019-05-23T11:23:56.032Z,3211.88
2019-05-23T11:24:56.036Z,3301.88
2019-05-23T11:25:56.021Z,3335.62
2019-05-23T11:26:56.021Z,3183.75
2019-05-23T11:27:56.016Z,2835.00
2019-05-23T11:28:55.986Z,2778.75
2019-05-23T11:29:55.983Z,2846.25
2019-05-23T11:30:56.457Z,3099.38
2019-05-23T11:31:56.071Z,3166.88
2019-05-23T11:32:55.990Z,3110.62
2019-05-23T11:33:55.933Z,3144.38
2019-05-23T11:34:55.924Z,3228.75
2019-05-23T11:35:55.915Z,3133.12
2019-05-23T11:36:55.908Z,3048.75
2019-05-23T11:37:55.913Z,3127.50
2019-05-23T11:38:55.891Z,3133.12
2019-05-23T11:39:55.874Z,3105.00
2019-05-23T11:40:55.865Z,2941.88
2019-05-23T11:41:55.860Z,2925.00
2019-05-23T11:42:55.870Z,2992.50
2019-05-23T11:43:55.841Z,2981.25
2019-05-23T11:44:55.834Z,2998.12
2019-05-23T11:45:55.814Z,2941.88
2019-05-23T11:46:55.805Z,2953.12
2019-05-23T11:47:55.862Z,2998.12
2019-05-23T11:48:55.782Z,3009.38
2019-05-23T11:49:55.806Z,2885.62
2019-05-23T11:50:55.775Z,2835.00
2019-05-23T11:51:55.764Z,2812.50
2019-05-23T11:52:56.225Z,2818.12
2019-05-23T11:54:07.757Z,2880.00
2019-05-23T11:54:56.737Z,2857.50
2019-05-23T11:55:55.721Z,2711.25
2019-05-23T11:56:55.715Z,2503.12
2019-05-23T11:57:55.726Z,2345.62
2019-05-23T11:58:55.715Z,2176.88
2019-05-23T11:59:55.684Z,2086.88
2019-05-23T12:00:55.777Z,2227.50
2019-05-23T12:01:55.665Z,2227.50
2019-05-23T12:02:55.762Z,2221.88
2019-05-23T12:03:55.636Z,2176.88
2019-05-23T12:04:55.874Z,2109.38
2019-05-23T12:05:55.659Z,2070.00
2019-05-23T12:06:56.584Z,2047.50
2019-05-23T12:07:55.618Z,2025.00
2019-05-23T12:08:55.601Z,2081.25
2019-05-23T12:09:55.585Z,2092.50
2019-05-23T12:10:55.573Z,2120.62
2019-05-23T12:11:55.558Z,2092.50
2019-05-23T12:12:55.590Z,2086.88
2019-05-23T12:13:55.550Z,2047.50
2019-05-23T12:14:55.540Z,2131.88
2019-05-23T12:15:55.522Z,2317.50
2019-05-23T12:16:55.504Z,2413.12
2019-05-23T12:17:55.525Z,2570.62
2019-05-23T12:18:55.487Z,2694.38
2019-05-23T12:19:55.486Z,2823.75
2019-05-23T12:20:55.466Z,2829.38
2019-05-23T12:21:55.501Z,2902.50
2019-05-23T12:22:55.519Z,2981.25
2019-05-23T12:23:55.438Z,3105.00
2019-05-23T12:24:55.426Z,3268.12
2019-05-23T12:25:55.421Z,3414.38
2019-05-23T12:26:55.425Z,3583.12
2019-05-23T12:27:55.434Z,3622.50
2019-05-23T12:28:55.381Z,3645.00
2019-05-23T12:29:55.384Z,3560.62
2019-05-23T12:30:55.365Z,3825.00
2019-05-23T12:31:55.370Z,4033.12
2019-05-23T12:32:55.381Z,3757.50
2019-05-23T12:33:55.331Z,2424.38
2019-05-23T12:35:09.449Z,1507.50
2019-05-23T12:35:56.322Z,1321.88
2019-05-23T12:37:17.246Z,1276.88
2019-05-23T12:37:56.321Z,1209.38
2019-05-23T12:38:55.293Z,1198.12
2019-05-23T12:39:55.349Z,1153.12